createdAt,value
2022-11-28T00:01:16.522Z,10.15
2022-11-28T00:04:05.327Z,10.38
2022-11-28T00:06:54.428Z,10.15
2022-11-28T00:09:42.694Z,10.68
2022-11-28T00:12:30.660Z,11.15
2022-11-28T00:15:20.146Z,10.48
2022-11-28T00:18:08.026Z,12.27
2022-11-28T00:21:01.118Z,12.48
2022-11-28T00:23:49.952Z,11.57
2022-11-28T00:26:40.381Z,10.95
2022-11-28T00:29:28.240Z,10.88
2022-11-28T00:32:17.650Z,11.07
2022-11-28T00:35:06.146Z,10.25
2022-11-28T00:37:53.808Z,10.18
2022-11-28T00:40:41.746Z,11.35
2022-11-28T00:43:30.759Z,10.50
2022-11-28T00:46:21.269Z,9.32
2022-11-28T00:49:10.502Z,12.07
2022-11-28T00:51:58.542Z,10.15
2022-11-28T00:54:46.766Z,12.70
2022-11-28T00:57:38.049Z,11.88
2022-11-28T01:00:26.340Z,11.05
2022-11-28T01:03:14.132Z,11.80
2022-11-28T01:06:03.476Z,11.52
2022-11-28T01:08:54.738Z,12.52
2022-11-28T01:11:43.201Z,12.38
2022-11-28T01:14:31.289Z,13.55
2022-11-28T01:17:19.380Z,11.98
2022-11-28T01:20:09.795Z,13.48
2022-11-28T01:23:02.752Z,10.05
2022-11-28T01:25:50.483Z,11.85
2022-11-28T01:28:38.419Z,13.50
2022-11-28T01:31:28.694Z,13.50
2022-11-28T01:34:16.712Z,12.15
2022-11-28T01:37:04.715Z,13.15
2022-11-28T01:39:53.949Z,13.52
2022-11-28T01:42:41.807Z,14.57
2022-11-28T01:45:32.452Z,12.43
2022-11-28T01:48:26.740Z,11.13
2022-11-28T01:51:15.041Z,11.88
2022-11-28T01:54:03.803Z,11.65
2022-11-28T01:56:58.021Z,10.43
2022-11-28T01:59:52.474Z,11.30
2022-11-28T02:02:46.253Z,12.35
2022-11-28T02:05:34.912Z,12.05
2022-11-28T02:08:22.885Z,13.57
2022-11-28T02:11:41.891Z,12.90
2022-11-28T02:14:54.847Z,13.15
2022-11-28T02:17:54.619Z,12.68
2022-11-28T02:21:08.998Z,12.68
2022-11-28T02:24:38.420Z,12.57
2022-11-28T02:28:18.589Z,12.13
2022-11-28T02:31:33.543Z,12.25
2022-11-28T02:34:29.788Z,12.98
2022-11-28T02:37:28.227Z,13.05
2022-11-28T02:40:23.382Z,13.20
2022-11-28T02:43:23.491Z,12.25
2022-11-28T02:46:17.921Z,13.10
2022-11-28T02:49:08.484Z,12.07
2022-11-28T02:52:01.956Z,11.95
2022-11-28T02:54:52.170Z,13.38
2022-11-28T02:57:42.616Z,12.65
2022-11-28T03:00:32.687Z,12.27
2022-11-28T03:03:49.581Z,12.27
2022-11-28T03:06:47.431Z,11.98
2022-11-28T03:10:04.948Z,12.40
2022-11-28T03:13:07.713Z,12.20
2022-11-28T03:16:07.171Z,11.45
2022-11-28T03:19:10.889Z,12.00
2022-11-28T03:22:06.422Z,11.40
2022-11-28T03:25:01.632Z,11.93
2022-11-28T03:27:54.995Z,11.45
2022-11-28T03:30:49.287Z,11.18
2022-11-28T03:33:39.641Z,11.35
2022-11-28T03:36:30.395Z,9.95
2022-11-28T03:39:21.453Z,11.55
2022-11-28T03:42:14.888Z,9.75
2022-11-28T03:45:08.868Z,11.88
2022-11-28T03:48:01.599Z,10.85
2022-11-28T03:50:54.471Z,10.90
2022-11-28T03:53:50.125Z,10.90
2022-11-28T03:56:45.025Z,10.68
2022-11-28T03:59:38.510Z,10.50
2022-11-28T04:02:32.042Z,10.40
2022-11-28T04:05:30.959Z,11.40
2022-11-28T04:08:24.604Z,9.70
2022-11-28T04:11:17.083Z,10.43
2022-11-28T04:14:13.660Z,9.70
2022-11-28T04:17:12.099Z,9.82
2022-11-28T04:20:06.842Z,9.68
2022-11-28T04:22:58.985Z,11.05
2022-11-28T04:25:53.636Z,10.65
2022-11-28T04:28:42.764Z,10.02
2022-11-28T04:31:58.561Z,10.77
2022-11-28T04:34:52.057Z,10.15
2022-11-28T04:37:43.278Z,11.07
2022-11-28T04:40:35.423Z,8.73
2022-11-28T04:43:28.226Z,10.65
2022-11-28T04:46:43.651Z,10.18
2022-11-28T04:49:32.513Z,9.93
2022-11-28T04:52:28.217Z,12.13
2022-11-28T04:55:29.117Z,10.52
2022-11-28T04:58:22.039Z,12.02
2022-11-28T05:01:15.370Z,11.35
2022-11-28T05:04:03.621Z,11.20
2022-11-28T05:06:52.153Z,9.65
2022-11-28T05:09:41.296Z,9.98
2022-11-28T05:12:29.094Z,10.02
2022-11-28T05:15:19.024Z,10.10
2022-11-28T05:18:07.284Z,11.65
2022-11-28T05:20:55.240Z,11.57
2022-11-28T05:23:45.396Z,10.55
2022-11-28T05:26:35.410Z,12.85
2022-11-28T05:29:24.828Z,11.27
2022-11-28T05:32:12.678Z,11.40
2022-11-28T05:35:00.782Z,9.85
2022-11-28T05:37:48.551Z,11.70
2022-11-28T05:40:40.030Z,11.35
2022-11-28T05:43:29.649Z,10.85
2022-11-28T05:46:18.101Z,11.73
2022-11-28T05:49:05.983Z,11.68
2022-11-28T05:51:53.865Z,12.00
2022-11-28T05:54:42.015Z,11.50
2022-11-28T05:57:32.075Z,10.45
2022-11-28T06:00:22.576Z,10.80
2022-11-28T06:03:10.567Z,10.82
2022-11-28T06:05:59.190Z,10.48
2022-11-28T06:08:48.425Z,10.02
2022-11-28T06:11:36.812Z,11.52
2022-11-28T06:14:26.907Z,9.57
2022-11-28T06:17:15.962Z,11.43
2022-11-28T06:20:04.969Z,11.27
2022-11-28T06:22:52.956Z,11.23
2022-11-28T06:25:40.963Z,10.85
2022-11-28T06:28:28.941Z,10.77
2022-11-28T06:31:20.243Z,12.68
2022-11-28T06:34:11.556Z,10.30
2022-11-28T06:40:12.093Z,11.93
2022-11-28T06:43:00.146Z,10.32
2022-11-28T06:45:48.235Z,12.18
2022-11-28T06:48:36.461Z,10.20
2022-11-28T06:51:25.800Z,10.32
2022-11-28T06:54:13.815Z,11.18
2022-11-28T06:57:01.873Z,10.95
2022-11-28T06:59:50.510Z,10.73
2022-11-28T07:02:38.617Z,10.80
2022-11-28T07:05:27.740Z,12.23
2022-11-28T07:08:17.249Z,10.73
2022-11-28T07:11:13.859Z,10.95
2022-11-28T07:14:04.162Z,11.05
2022-11-28T07:16:52.141Z,11.23
2022-11-28T07:19:42.185Z,10.63
2022-11-28T07:22:30.344Z,11.70
2022-11-28T07:25:29.233Z,11.00
2022-11-28T07:28:20.676Z,12.60
2022-11-28T07:31:12.460Z,11.98
2022-11-28T07:34:03.381Z,13.10
2022-11-28T07:36:51.047Z,12.52
2022-11-28T07:39:39.240Z,12.30
2022-11-28T07:42:29.333Z,12.32
2022-11-28T07:45:17.210Z,12.70
2022-11-28T07:48:04.968Z,9.73
2022-11-28T07:50:53.117Z,10.63
2022-11-28T07:53:42.115Z,12.15
2022-11-28T07:56:57.274Z,11.45
2022-11-28T07:59:41.128Z,12.75
2022-11-28T08:02:32.380Z,12.43
2022-11-28T08:05:20.473Z,11.40
2022-11-28T08:08:08.506Z,12.10
2022-11-28T08:10:59.848Z,11.55
2022-11-28T08:13:48.397Z,10.68
2022-11-28T08:16:45.068Z,13.45
2022-11-28T08:19:35.359Z,12.18
2022-11-28T08:22:23.248Z,11.63
2022-11-28T08:25:12.341Z,11.45
2022-11-28T08:28:00.206Z,11.75
2022-11-28T08:30:48.159Z,13.75
2022-11-28T08:33:37.497Z,12.50
2022-11-28T08:36:28.352Z,11.25
2022-11-28T08:39:23.818Z,11.55
2022-11-28T08:42:16.861Z,15.68
2022-11-28T08:45:08.178Z,14.75
2022-11-28T08:47:56.256Z,11.80
2022-11-28T08:50:49.364Z,12.45
2022-11-28T08:56:24.872Z,12.25
2022-11-28T08:59:12.857Z,12.68
2022-11-28T09:02:00.797Z,12.00
2022-11-28T09:04:48.799Z,12.07
2022-11-28T09:07:38.335Z,12.02
2022-11-28T09:10:27.019Z,11.45
2022-11-28T09:13:16.149Z,11.32
2022-11-28T09:16:04.515Z,11.75
2022-11-28T09:18:52.389Z,12.63
2022-11-28T09:21:41.529Z,12.10
2022-11-28T09:24:30.789Z,12.30
2022-11-28T09:27:18.351Z,11.82
2022-11-28T09:30:07.669Z,11.10
2022-11-28T09:32:55.515Z,10.77
2022-11-28T09:35:43.725Z,11.35
2022-11-28T09:38:31.496Z,12.55
2022-11-28T09:41:58.832Z,11.65
2022-11-28T09:44:49.543Z,11.65
2022-11-28T09:47:40.877Z,12.13
2022-11-28T09:50:33.623Z,11.95
2022-11-28T09:53:27.760Z,11.45
2022-11-28T09:56:18.024Z,13.10
2022-11-28T09:59:15.589Z,12.00
2022-11-28T10:02:19.479Z,11.35
2022-11-28T10:05:16.627Z,10.23
2022-11-28T10:08:17.075Z,11.32
2022-11-28T10:11:11.493Z,11.63
2022-11-28T10:14:08.818Z,11.40
2022-11-28T10:17:05.431Z,11.90
2022-11-28T10:19:57.931Z,11.80
2022-11-28T10:22:51.251Z,11.93
2022-11-28T10:25:43.526Z,12.63
2022-11-28T10:28:35.593Z,12.27
2022-11-28T10:31:31.879Z,11.53
2022-11-28T10:34:28.964Z,12.25
2022-11-28T10:37:21.649Z,11.15
2022-11-28T10:40:22.197Z,11.90
2022-11-28T10:43:21.261Z,11.93
2022-11-28T10:46:36.844Z,10.52
2022-11-28T10:49:41.331Z,10.50
2022-11-28T10:52:37.161Z,11.57
2022-11-28T10:55:35.818Z,11.90
2022-11-28T10:58:28.376Z,12.02
2022-11-28T11:01:16.830Z,11.43
2022-11-28T11:04:05.086Z,11.77
2022-11-28T11:07:11.205Z,12.48
2022-11-28T11:10:14.387Z,12.43
2022-11-28T11:13:10.432Z,11.75
2022-11-28T11:16:01.991Z,13.93
2022-11-28T11:18:55.902Z,13.50
2022-11-28T11:21:52.072Z,11.13
2022-11-28T11:24:41.482Z,10.48
2022-11-28T11:27:29.262Z,13.10
2022-11-28T11:30:28.669Z,12.65
2022-11-28T11:33:18.563Z,12.45
2022-11-28T11:36:21.245Z,10.98
2022-11-28T11:39:23.000Z,13.40
2022-11-28T11:42:19.828Z,13.77
2022-11-28T11:45:27.232Z,12.35
2022-11-28T11:48:15.259Z,12.60
2022-11-28T11:51:03.197Z,12.20
2022-11-28T11:54:00.982Z,12.40
2022-11-28T11:57:00.898Z,13.60
2022-11-28T12:00:05.401Z,14.82
2022-11-28T12:02:56.415Z,12.60
2022-11-28T12:06:13.126Z,13.93
2022-11-28T12:09:09.268Z,13.57
2022-11-28T12:12:01.552Z,12.77
2022-11-28T12:14:50.469Z,14.43
2022-11-28T12:17:57.177Z,14.60
2022-11-28T12:20:59.616Z,12.15
2022-11-28T12:24:00.745Z,13.65
2022-11-28T12:26:52.003Z,13.48
2022-11-28T12:29:49.935Z,13.70
2022-11-28T12:32:51.548Z,13.52
2022-11-28T12:35:42.747Z,12.75
2022-11-28T12:38:44.928Z,11.98
2022-11-28T12:42:05.827Z,12.63
2022-11-28T12:45:19.183Z,13.10
2022-11-28T12:51:11.669Z,11.70
2022-11-28T12:54:13.265Z,13.98
2022-11-28T12:57:09.733Z,15.35
2022-11-28T13:00:09.006Z,15.32
2022-11-28T13:03:14.618Z,13.90
2022-11-28T13:06:16.016Z,13.18
2022-11-28T13:09:22.235Z,13.57
2022-11-28T13:12:24.008Z,12.73
2022-11-28T13:15:17.876Z,16.35
2022-11-28T13:18:16.548Z,13.57
2022-11-28T13:21:15.139Z,12.65
2022-11-28T13:24:07.548Z,13.05
2022-11-28T13:27:04.082Z,13.32
2022-11-28T13:30:01.031Z,13.35
2022-11-28T13:32:54.893Z,13.13
2022-11-28T13:35:46.515Z,14.20
2022-11-28T13:39:09.566Z,12.73
2022-11-28T13:42:28.309Z,12.95
2022-11-28T13:45:28.396Z,13.00
2022-11-28T13:49:19.941Z,12.27
2022-11-28T13:52:34.119Z,12.55
2022-11-28T13:55:44.791Z,12.40
2022-11-28T13:58:36.088Z,12.05
2022-11-28T14:01:26.385Z,11.32
2022-11-28T14:04:17.228Z,13.73
2022-11-28T14:07:09.290Z,11.95
2022-11-28T14:10:15.635Z,13.65
2022-11-28T14:13:40.293Z,10.82
2022-11-28T14:16:42.364Z,12.23
2022-11-28T14:19:56.199Z,11.57
2022-11-28T14:23:01.885Z,11.13
2022-11-28T14:25:53.609Z,12.20
2022-11-28T14:28:45.850Z,12.82
2022-11-28T14:31:36.697Z,13.50
2022-11-28T14:34:43.885Z,12.98
2022-11-28T14:37:57.571Z,12.98
2022-11-28T14:41:03.189Z,12.35
2022-11-28T14:43:52.869Z,14.07
2022-11-28T14:47:14.723Z,12.18
2022-11-28T14:50:46.864Z,10.77
2022-11-28T14:53:48.696Z,11.55
2022-11-28T14:56:37.973Z,11.88
2022-11-28T14:59:31.964Z,11.57
2022-11-28T15:02:56.323Z,12.75
2022-11-28T15:05:50.363Z,13.63
2022-11-28T15:09:02.158Z,11.43
2022-11-28T15:12:11.391Z,12.80
2022-11-28T15:15:00.128Z,12.30
2022-11-28T15:17:51.302Z,12.05
2022-11-28T15:20:48.022Z,10.52
2022-11-28T15:23:38.349Z,11.40
2022-11-28T15:26:30.652Z,11.43
2022-11-28T15:29:24.092Z,12.57
2022-11-28T15:32:16.461Z,11.52
2022-11-28T15:35:12.258Z,12.60
2022-11-28T15:38:00.997Z,15.55
2022-11-28T15:40:53.790Z,12.20
2022-11-28T15:46:36.117Z,13.18
2022-11-28T15:49:26.313Z,12.00
2022-11-28T15:52:19.633Z,11.52
2022-11-28T15:55:16.828Z,11.70
2022-11-28T15:58:20.093Z,13.82
2022-11-28T16:01:14.518Z,12.32
2022-11-28T16:04:07.500Z,15.57
2022-11-28T16:07:01.245Z,13.80
2022-11-28T16:09:59.607Z,14.15
2022-11-28T16:12:47.823Z,13.18
2022-11-28T16:15:35.931Z,15.07
2022-11-28T16:18:24.547Z,13.20
2022-11-28T16:21:15.455Z,13.73
2022-11-28T16:24:04.201Z,14.18
2022-11-28T16:26:56.697Z,13.02
2022-11-28T16:29:47.939Z,15.18
2022-11-28T16:32:39.672Z,12.27
2022-11-28T16:35:29.778Z,12.00
2022-11-28T16:38:23.615Z,11.85
2022-11-28T16:41:32.539Z,12.60
2022-11-28T16:44:35.969Z,13.38
2022-11-28T16:50:20.768Z,13.27
2022-11-28T16:53:29.362Z,14.48
2022-11-28T16:56:27.835Z,15.55
2022-11-28T16:59:17.920Z,12.85
2022-11-28T17:02:13.326Z,13.98
2022-11-28T17:05:01.957Z,15.90
2022-11-28T17:07:49.701Z,11.93
2022-11-28T17:10:37.742Z,15.40
2022-11-28T17:13:30.414Z,12.77
2022-11-28T17:16:20.586Z,14.13
2022-11-28T17:19:08.236Z,14.93
2022-11-28T17:22:00.201Z,12.65
2022-11-28T17:24:49.694Z,13.90
2022-11-28T17:27:39.768Z,14.32
2022-11-28T17:30:28.844Z,12.93
2022-11-28T17:33:17.631Z,13.13
2022-11-28T17:36:06.060Z,12.90
2022-11-28T17:38:53.929Z,14.02
2022-11-28T17:41:42.768Z,14.30
2022-11-28T17:44:32.296Z,14.00
2022-11-28T17:47:21.703Z,15.88
2022-11-28T17:50:11.255Z,15.75
2022-11-28T17:52:59.164Z,13.95
2022-11-28T17:55:51.454Z,15.63
2022-11-28T17:58:57.022Z,13.60
2022-11-28T18:01:45.720Z,15.85
2022-11-28T18:04:37.425Z,16.10
2022-11-28T18:07:25.670Z,15.23
2022-11-28T18:10:13.758Z,17.20
2022-11-28T18:13:01.824Z,13.48
2022-11-28T18:15:54.243Z,14.95
2022-11-28T18:18:42.147Z,13.70
2022-11-28T18:21:31.266Z,14.70
2022-11-28T18:24:19.109Z,14.10
2022-11-28T18:27:07.041Z,13.82
2022-11-28T18:29:55.014Z,12.55
2022-11-28T18:32:43.435Z,13.38
2022-11-28T18:35:31.078Z,28.00
2022-11-28T18:38:20.265Z,17.77
2022-11-28T18:41:10.067Z,21.13
2022-11-28T18:43:58.675Z,16.08
2022-11-28T18:46:46.649Z,14.35
2022-11-28T18:49:34.626Z,15.10
2022-11-28T18:52:22.646Z,17.65
2022-11-28T18:55:12.228Z,14.93
2022-11-28T18:58:00.290Z,14.15
2022-11-28T19:00:48.643Z,17.40
2022-11-28T19:03:36.779Z,14.68
2022-11-28T19:06:25.597Z,15.90
2022-11-28T19:09:15.688Z,14.13
2022-11-28T19:12:05.031Z,15.20
2022-11-28T19:14:57.325Z,15.40
2022-11-28T19:17:48.448Z,14.65
2022-11-28T19:20:36.642Z,13.55
2022-11-28T19:23:24.387Z,14.73
2022-11-28T19:26:14.334Z,15.05
2022-11-28T19:29:04.262Z,14.45
2022-11-28T19:31:52.529Z,13.73
2022-11-28T19:34:40.696Z,13.57
2022-11-28T19:37:53.688Z,14.55
2022-11-28T19:40:47.604Z,13.90
2022-11-28T19:43:36.531Z,14.48
2022-11-28T19:46:29.202Z,13.00
2022-11-28T19:49:22.086Z,13.07
2022-11-28T19:52:09.874Z,13.20
2022-11-28T19:54:57.933Z,13.73
2022-11-28T19:57:45.821Z,12.20
2022-11-28T20:00:33.783Z,11.98
2022-11-28T20:03:22.894Z,13.13
2022-11-28T20:06:36.179Z,12.68
2022-11-28T20:09:24.022Z,12.02
2022-11-28T20:12:12.089Z,13.25
2022-11-28T20:15:01.799Z,11.95
2022-11-28T20:17:49.724Z,12.45
2022-11-28T20:20:39.052Z,12.73
2022-11-28T20:23:27.220Z,12.88
2022-11-28T20:26:17.623Z,13.70
2022-11-28T20:29:05.940Z,11.73
2022-11-28T20:31:54.615Z,12.77
2022-11-28T20:34:42.235Z,13.45
2022-11-28T20:37:31.797Z,13.68
2022-11-28T20:40:19.713Z,11.82
2022-11-28T20:43:07.835Z,12.80
2022-11-28T20:45:56.368Z,12.05
2022-11-28T20:48:44.434Z,11.63
2022-11-28T20:51:34.372Z,11.88
2022-11-28T20:54:25.926Z,11.32
2022-11-28T20:57:21.427Z,11.38
2022-11-28T21:00:11.266Z,11.38
2022-11-28T21:02:59.048Z,12.13
2022-11-28T21:05:47.012Z,10.90
2022-11-28T21:08:34.938Z,11.85
2022-11-28T21:11:55.221Z,10.38
2022-11-28T21:14:33.859Z,10.63
2022-11-28T21:17:22.097Z,11.38
2022-11-28T21:20:11.269Z,11.10
2022-11-28T21:22:59.156Z,11.00
2022-11-28T21:26:14.141Z,9.77
2022-11-28T21:29:06.785Z,10.73
2022-11-28T21:31:55.035Z,10.30
2022-11-28T21:34:43.072Z,10.70
2022-11-28T21:37:31.077Z,10.40
2022-11-28T21:40:19.131Z,11.77
2022-11-28T21:43:07.101Z,10.65
2022-11-28T21:45:56.618Z,11.80
2022-11-28T21:48:44.384Z,10.77
2022-11-28T21:51:50.456Z,11.50
2022-11-28T21:54:38.107Z,9.98
2022-11-28T21:57:26.159Z,10.30
2022-11-28T22:00:38.302Z,11.50
2022-11-28T22:03:24.380Z,9.15
2022-11-28T22:06:16.878Z,10.02
2022-11-28T22:09:13.835Z,10.10
2022-11-28T22:12:01.715Z,9.98
2022-11-28T22:14:50.059Z,10.02
2022-11-28T22:17:38.494Z,12.13
2022-11-28T22:20:27.927Z,11.27
2022-11-28T22:23:18.750Z,11.48
2022-11-28T22:26:08.333Z,10.23
2022-11-28T22:28:56.204Z,10.00
2022-11-28T22:31:56.168Z,10.32
2022-11-28T22:34:44.704Z,10.68
2022-11-28T22:37:34.497Z,10.98
2022-11-28T22:40:22.566Z,10.35
2022-11-28T22:43:10.531Z,10.65
2022-11-28T22:45:59.272Z,10.02
2022-11-28T22:48:47.783Z,10.07
2022-11-28T22:52:00.998Z,12.13
2022-11-28T22:54:51.340Z,9.95
2022-11-28T22:57:39.025Z,9.73
2022-11-28T23:00:27.066Z,9.48
2022-11-28T23:03:15.533Z,11.70
2022-11-28T23:06:06.553Z,10.00
2022-11-28T23:08:55.576Z,12.10
2022-11-28T23:11:44.666Z,10.95
2022-11-28T23:14:33.012Z,11.15
2022-11-28T23:17:20.989Z,11.10
2022-11-28T23:20:10.221Z,12.05
2022-11-28T23:22:57.896Z,10.48
2022-11-28T23:25:45.936Z,10.57
2022-11-28T23:28:35.726Z,12.13
2022-11-28T23:31:25.291Z,12.00
2022-11-28T23:34:13.471Z,11.00
2022-11-28T23:37:01.250Z,11.65
2022-11-28T23:39:49.244Z,11.30
2022-11-28T23:42:37.249Z,11.30
2022-11-28T23:45:27.038Z,11.15
2022-11-28T23:48:16.320Z,12.40
2022-11-28T23:51:04.799Z,11.85
2022-11-28T23:53:53.514Z,11.50
2022-11-28T23:56:44.190Z,9.88
2022-11-28T23:59:32.005Z,11.65
